National Weather Service
For a better view on National Weather Service, Update Your Browser.
Current Weather
  • 78o F
  • Rainfall Accumulated 0 mm
  • Wind Speed 9.7 knots
  • Wind Direction ENE
  • Humidity 80%
  • Pressure 1018.3 millibars
Today's Forecast As of 28 Jan 2023 12:52 AM
Partly Cloudy
Night
Partly Cloudy
Min 75o F | Max 80o F
07:01 18:15
  • Northeast at 15 to 20 knots.

  • Rough with a wave height of 4 to 6 feet.

    Small craft should exercise caution over open water

Aviation Forecast

Grand Cayman: Terminal Aerodrome Forecast

Last updated at 28 Jan 2023 12:45 AM

TAF MWCR 280300Z 2800/2824 CNL

Grand Cayman: Metar Reports

Last updated at 27 Jan 2023 10:00 PM

Jan 27, 2023 - 10:00 PM EST / 2023.01.28 0300 UTC
Wind: from the NE (050 degrees) at 10 MPH (9 KT):0
Visibility: greater than 7 mile(s):0
Sky conditions: mostly clear
Temperature: 78 F (26 C)
Dew Point: 69 F (21 C)
Relative Humidity: 73%
Pressure (altimeter): 30.09 in. Hg (1019 hPa)
ob: MWCR 280300Z 05009KT 9999 FEW020 26/21 Q1019

Cayman Brac: Terminal Aerodrome Forecast

Last updated at 27 Jan 2023 06:57 PM

TAF TAF MWCB 271700Z 2718/2818 06012KT 9999 FEW018

Cayman Brac: Metar Reports

Last updated at 27 Jan 2023 07:00 PM

Jan 27, 2023 - 07:00 PM EST / 2023.01.28 0000 UTC
Wind: from the ENE (060 degrees) at 7 MPH (6 KT):0
Visibility: greater than 7 mile(s):0
Sky conditions: mostly clear
Temperature: 78 F (26 C)
Dew Point: 71 F (22 C)
Relative Humidity: 78%
Pressure (altimeter): 30.06 in. Hg (1018 hPa)
ob: MWCB 280000Z 06006KT 9999 FEW022 26/22 Q1018

Turbulence

Turbulence

Time displayed in GMT

Wind SHEAR

Wind SHEAR

Time displayed in GMT